sensor_id;sensor_type;location;lat;lon;timestamp;P1;durP1;ratioP1;P2;durP2;ratioP2
56183;SDS011;42086;53.170;6.980;2022-11-10T00:00:54;14.32;;;2.78;;
56183;SDS011;42086;53.170;6.980;2022-11-10T00:03:19;11.77;;;2.90;;
56183;SDS011;42086;53.170;6.980;2022-11-10T00:05:45;14.45;;;3.20;;
56183;SDS011;42086;53.170;6.980;2022-11-10T00:08:11;9.70;;;3.28;;
56183;SDS011;42086;53.170;6.980;2022-11-10T00:10:38;17.83;;;4.03;;
56183;SDS011;42086;53.170;6.980;2022-11-10T00:13:26;17.85;;;4.68;;
56183;SDS011;42086;53.170;6.980;2022-11-10T00:15:54;15.32;;;3.60;;
56183;SDS011;42086;53.170;6.980;2022-11-10T00:18:40;19.95;;;4.50;;
56183;SDS011;42086;53.170;6.980;2022-11-10T00:21:06;16.83;;;4.28;;
56183;SDS011;42086;53.170;6.980;2022-11-10T00:23:33;19.27;;;4.95;;
56183;SDS011;42086;53.170;6.980;2022-11-10T00:25:59;16.80;;;5.00;;
56183;SDS011;42086;53.170;6.980;2022-11-10T00:28:24;17.77;;;4.60;;
56183;SDS011;42086;53.170;6.980;2022-11-10T00:30:50;16.40;;;4.30;;
56183;SDS011;42086;53.170;6.980;2022-11-10T00:33:16;16.50;;;4.15;;
56183;SDS011;42086;53.170;6.980;2022-11-10T00:35:42;13.63;;;4.50;;
56183;SDS011;42086;53.170;6.980;2022-11-10T00:38:07;12.63;;;3.80;;
56183;SDS011;42086;53.170;6.980;2022-11-10T00:40:33;17.15;;;4.35;;
56183;SDS011;42086;53.170;6.980;2022-11-10T00:42:59;14.68;;;4.20;;
56183;SDS011;42086;53.170;6.980;2022-11-10T00:45:24;14.15;;;3.75;;
56183;SDS011;42086;53.170;6.980;2022-11-10T00:47:50;12.10;;;3.90;;
56183;SDS011;42086;53.170;6.980;2022-11-10T00:50:16;11.98;;;4.45;;
56183;SDS011;42086;53.170;6.980;2022-11-10T00:52:41;11.63;;;3.83;;
56183;SDS011;42086;53.170;6.980;2022-11-10T00:55:07;13.23;;;4.30;;
56183;SDS011;42086;53.170;6.980;2022-11-10T00:57:33;17.65;;;5.00;;
56183;SDS011;42086;53.170;6.980;2022-11-10T00:59:58;15.27;;;4.88;;
56183;SDS011;42086;53.170;6.980;2022-11-10T01:02:24;12.25;;;4.53;;
56183;SDS011;42086;53.170;6.980;2022-11-10T01:04:50;20.08;;;4.93;;
56183;SDS011;42086;53.170;6.980;2022-11-10T01:07:15;16.35;;;4.45;;
56183;SDS011;42086;53.170;6.980;2022-11-10T01:09:41;16.52;;;5.40;;
56183;SDS011;42086;53.170;6.980;2022-11-10T01:12:07;15.50;;;4.65;;
56183;SDS011;42086;53.170;6.980;2022-11-10T01:14:32;13.90;;;4.07;;
56183;SDS011;42086;53.170;6.980;2022-11-10T01:16:58;16.63;;;5.28;;
56183;SDS011;42086;53.170;6.980;2022-11-10T01:19:24;18.58;;;5.22;;
56183;SDS011;42086;53.170;6.980;2022-11-10T01:21:50;11.50;;;3.83;;
56183;SDS011;42086;53.170;6.980;2022-11-10T01:24:19;11.32;;;4.60;;
56183;SDS011;42086;53.170;6.980;2022-11-10T01:26:46;15.80;;;4.97;;
56183;SDS011;42086;53.170;6.980;2022-11-10T01:29:12;18.40;;;5.53;;
56183;SDS011;42086;53.170;6.980;2022-11-10T01:31:37;17.60;;;4.78;;
56183;SDS011;42086;53.170;6.980;2022-11-10T01:34:03;13.57;;;5.40;;
56183;SDS011;42086;53.170;6.980;2022-11-10T01:36:29;18.30;;;5.78;;
56183;SDS011;42086;53.170;6.980;2022-11-10T01:38:55;14.80;;;4.78;;
56183;SDS011;42086;53.170;6.980;2022-11-10T01:41:21;9.90;;;4.35;;
56183;SDS011;42086;53.170;6.980;2022-11-10T01:43:47;16.25;;;5.30;;
56183;SDS011;42086;53.170;6.980;2022-11-10T01:46:13;15.43;;;5.70;;
56183;SDS011;42086;53.170;6.980;2022-11-10T01:48:52;19.63;;;5.75;;
56183;SDS011;42086;53.170;6.980;2022-11-10T01:51:27;19.08;;;5.60;;
56183;SDS011;42086;53.170;6.980;2022-11-10T01:53:58;22.50;;;5.97;;
56183;SDS011;42086;53.170;6.980;2022-11-10T01:56:28;18.75;;;5.97;;
56183;SDS011;42086;53.170;6.980;2022-11-10T01:58:58;19.25;;;6.10;;
56183;SDS011;42086;53.170;6.980;2022-11-10T02:01:27;18.08;;;6.40;;
56183;SDS011;42086;53.170;6.980;2022-11-10T02:03:56;18.27;;;6.63;;
56183;SDS011;42086;53.170;6.980;2022-11-10T02:06:34;25.58;;;6.82;;
56183;SDS011;42086;53.170;6.980;2022-11-10T02:09:03;23.65;;;6.18;;
56183;SDS011;42086;53.170;6.980;2022-11-10T02:11:29;17.95;;;7.05;;
56183;SDS011;42086;53.170;6.980;2022-11-10T02:13:56;15.50;;;6.00;;
56183;SDS011;42086;53.170;6.980;2022-11-10T02:16:22;19.88;;;6.82;;
56183;SDS011;42086;53.170;6.980;2022-11-10T02:18:48;17.65;;;7.63;;
56183;SDS011;42086;53.170;6.980;2022-11-10T02:21:15;17.88;;;6.10;;
56183;SDS011;42086;53.170;6.980;2022-11-10T02:23:42;16.92;;;5.65;;
56183;SDS011;42086;53.170;6.980;2022-11-10T02:26:18;27.23;;;7.50;;
56183;SDS011;42086;53.170;6.980;2022-11-10T02:28:47;24.30;;;7.20;;
56183;SDS011;42086;53.170;6.980;2022-11-10T02:31:14;23.27;;;6.68;;
56183;SDS011;42086;53.170;6.980;2022-11-10T02:33:40;20.92;;;7.28;;
56183;SDS011;42086;53.170;6.980;2022-11-10T02:36:06;19.77;;;7.32;;
56183;SDS011;42086;53.170;6.980;2022-11-10T02:38:32;19.10;;;6.55;;
56183;SDS011;42086;53.170;6.980;2022-11-10T02:40:58;24.65;;;7.80;;
56183;SDS011;42086;53.170;6.980;2022-11-10T02:43:24;20.33;;;7.40;;
56183;SDS011;42086;53.170;6.980;2022-11-10T02:45:49;17.15;;;6.93;;
56183;SDS011;42086;53.170;6.980;2022-11-10T02:48:15;21.17;;;7.00;;
56183;SDS011;42086;53.170;6.980;2022-11-10T02:50:41;20.05;;;7.03;;
56183;SDS011;42086;53.170;6.980;2022-11-10T02:53:07;25.35;;;6.70;;
56183;SDS011;42086;53.170;6.980;2022-11-10T02:55:33;17.63;;;6.72;;
56183;SDS011;42086;53.170;6.980;2022-11-10T02:57:59;16.85;;;6.63;;
56183;SDS011;42086;53.170;6.980;2022-11-10T03:00:25;25.40;;;7.07;;
56183;SDS011;42086;53.170;6.980;2022-11-10T03:02:55;21.90;;;6.88;;
56183;SDS011;42086;53.170;6.980;2022-11-10T03:05:26;18.23;;;5.78;;
56183;SDS011;42086;53.170;6.980;2022-11-10T03:07:56;23.10;;;6.63;;
56183;SDS011;42086;53.170;6.980;2022-11-10T03:10:26;19.27;;;6.57;;
56183;SDS011;42086;53.170;6.980;2022-11-10T03:12:57;19.25;;;6.68;;
56183;SDS011;42086;53.170;6.980;2022-11-10T03:15:24;15.48;;;6.13;;
56183;SDS011;42086;53.170;6.980;2022-11-10T03:17:50;17.48;;;5.68;;
56183;SDS011;42086;53.170;6.980;2022-11-10T03:20:16;22.90;;;6.55;;
56183;SDS011;42086;53.170;6.980;2022-11-10T03:22:43;16.60;;;5.53;;
56183;SDS011;42086;53.170;6.980;2022-11-10T03:25:09;16.92;;;4.85;;
56183;SDS011;42086;53.170;6.980;2022-11-10T03:27:35;14.38;;;4.85;;
56183;SDS011;42086;53.170;6.980;2022-11-10T03:30:01;16.00;;;5.82;;
56183;SDS011;42086;53.170;6.980;2022-11-10T03:32:28;17.77;;;5.60;;
56183;SDS011;42086;53.170;6.980;2022-11-10T03:34:54;18.45;;;6.03;;
56183;SDS011;42086;53.170;6.980;2022-11-10T03:37:20;18.20;;;4.85;;
56183;SDS011;42086;53.170;6.980;2022-11-10T03:39:45;15.38;;;4.43;;
56183;SDS011;42086;53.170;6.980;2022-11-10T03:42:11;21.17;;;6.07;;
56183;SDS011;42086;53.170;6.980;2022-11-10T03:44:37;20.00;;;5.70;;
56183;SDS011;42086;53.170;6.980;2022-11-10T03:47:03;20.83;;;5.43;;
56183;SDS011;42086;53.170;6.980;2022-11-10T03:49:29;20.20;;;5.07;;
56183;SDS011;42086;53.170;6.980;2022-11-10T03:51:55;17.90;;;5.85;;
56183;SDS011;42086;53.170;6.980;2022-11-10T03:54:21;21.65;;;5.97;;
56183;SDS011;42086;53.170;6.980;2022-11-10T03:56:46;15.55;;;5.60;;
56183;SDS011;42086;53.170;6.980;2022-11-10T03:59:12;18.55;;;5.47;;
56183;SDS011;42086;53.170;6.980;2022-11-10T04:01:38;26.27;;;6.20;;
56183;SDS011;42086;53.170;6.980;2022-11-10T04:04:03;14.98;;;6.07;;
56183;SDS011;42086;53.170;6.980;2022-11-10T04:06:29;20.65;;;6.43;;
56183;SDS011;42086;53.170;6.980;2022-11-10T04:09:13;28.52;;;6.55;;
56183;SDS011;42086;53.170;6.980;2022-11-10T04:11:39;24.10;;;6.15;;
56183;SDS011;42086;53.170;6.980;2022-11-10T04:14:23;24.40;;;6.28;;
56183;SDS011;42086;53.170;6.980;2022-11-10T04:17:07;21.88;;;7.13;;
56183;SDS011;42086;53.170;6.980;2022-11-10T04:19:33;21.17;;;6.38;;
56183;SDS011;42086;53.170;6.980;2022-11-10T04:21:59;23.20;;;6.85;;
56183;SDS011;42086;53.170;6.980;2022-11-10T04:24:25;24.10;;;7.18;;
56183;SDS011;42086;53.170;6.980;2022-11-10T04:26:51;27.77;;;6.68;;
56183;SDS011;42086;53.170;6.980;2022-11-10T04:29:17;26.10;;;7.30;;
56183;SDS011;42086;53.170;6.980;2022-11-10T04:31:44;21.77;;;6.80;;
56183;SDS011;42086;53.170;6.980;2022-11-10T04:34:11;20.77;;;7.80;;
56183;SDS011;42086;53.170;6.980;2022-11-10T04:36:39;24.55;;;6.72;;
56183;SDS011;42086;53.170;6.980;2022-11-10T04:39:06;23.23;;;7.20;;
56183;SDS011;42086;53.170;6.980;2022-11-10T04:41:33;21.70;;;7.10;;
56183;SDS011;42086;53.170;6.980;2022-11-10T04:43:59;22.80;;;5.78;;
56183;SDS011;42086;53.170;6.980;2022-11-10T04:46:30;27.33;;;7.95;;
56183;SDS011;42086;53.170;6.980;2022-11-10T04:48:57;22.52;;;6.97;;
56183;SDS011;42086;53.170;6.980;2022-11-10T04:54:16;27.63;;;7.90;;
56183;SDS011;42086;53.170;6.980;2022-11-10T04:56:42;29.40;;;8.13;;
56183;SDS011;42086;53.170;6.980;2022-11-10T04:59:07;25.17;;;6.78;;
56183;SDS011;42086;53.170;6.980;2022-11-10T05:01:33;31.75;;;8.27;;
56183;SDS011;42086;53.170;6.980;2022-11-10T05:03:59;25.08;;;7.75;;
56183;SDS011;42086;53.170;6.980;2022-11-10T05:06:25;25.45;;;8.07;;
56183;SDS011;42086;53.170;6.980;2022-11-10T05:08:50;20.48;;;7.47;;
56183;SDS011;42086;53.170;6.980;2022-11-10T05:11:16;19.00;;;7.80;;
56183;SDS011;42086;53.170;6.980;2022-11-10T05:13:43;24.05;;;7.80;;
56183;SDS011;42086;53.170;6.980;2022-11-10T05:16:09;25.98;;;7.35;;
56183;SDS011;42086;53.170;6.980;2022-11-10T05:18:36;30.02;;;8.68;;
56183;SDS011;42086;53.170;6.980;2022-11-10T05:21:02;25.80;;;8.23;;
56183;SDS011;42086;53.170;6.980;2022-11-10T05:23:28;28.63;;;8.57;;
56183;SDS011;42086;53.170;6.980;2022-11-10T05:26:24;30.17;;;8.95;;
56183;SDS011;42086;53.170;6.980;2022-11-10T05:28:48;28.02;;;8.57;;
56183;SDS011;42086;53.170;6.980;2022-11-10T05:31:14;24.00;;;8.77;;
56183;SDS011;42086;53.170;6.980;2022-11-10T05:33:40;28.23;;;8.45;;
56183;SDS011;42086;53.170;6.980;2022-11-10T05:36:06;23.85;;;8.02;;
56183;SDS011;42086;53.170;6.980;2022-11-10T05:38:32;28.92;;;7.53;;
56183;SDS011;42086;53.170;6.980;2022-11-10T05:40:58;26.35;;;8.23;;
56183;SDS011;42086;53.170;6.980;2022-11-10T05:43:24;27.67;;;8.27;;
56183;SDS011;42086;53.170;6.980;2022-11-10T05:45:50;31.02;;;9.02;;
56183;SDS011;42086;53.170;6.980;2022-11-10T05:48:16;18.17;;;6.80;;
56183;SDS011;42086;53.170;6.980;2022-11-10T05:50:42;23.90;;;7.38;;
56183;SDS011;42086;53.170;6.980;2022-11-10T05:53:08;21.67;;;6.90;;
56183;SDS011;42086;53.170;6.980;2022-11-10T05:55:33;26.13;;;7.15;;
56183;SDS011;42086;53.170;6.980;2022-11-10T05:58:00;21.58;;;6.70;;
56183;SDS011;42086;53.170;6.980;2022-11-10T06:00:26;22.25;;;6.30;;
56183;SDS011;42086;53.170;6.980;2022-11-10T06:03:04;28.15;;;8.90;;
56183;SDS011;42086;53.170;6.980;2022-11-10T06:05:32;24.38;;;8.05;;
56183;SDS011;42086;53.170;6.980;2022-11-10T06:08:00;24.05;;;8.00;;
56183;SDS011;42086;53.170;6.980;2022-11-10T06:10:27;27.10;;;7.80;;
56183;SDS011;42086;53.170;6.980;2022-11-10T06:12:53;21.65;;;7.88;;
56183;SDS011;42086;53.170;6.980;2022-11-10T06:15:19;23.73;;;8.43;;
56183;SDS011;42086;53.170;6.980;2022-11-10T06:17:45;24.88;;;8.30;;
56183;SDS011;42086;53.170;6.980;2022-11-10T06:20:11;20.23;;;7.93;;
56183;SDS011;42086;53.170;6.980;2022-11-10T06:22:38;27.50;;;8.52;;
56183;SDS011;42086;53.170;6.980;2022-11-10T06:25:04;27.08;;;8.18;;
56183;SDS011;42086;53.170;6.980;2022-11-10T06:27:30;26.45;;;7.60;;
56183;SDS011;42086;53.170;6.980;2022-11-10T06:29:56;26.45;;;8.40;;
56183;SDS011;42086;53.170;6.980;2022-11-10T06:32:22;26.98;;;8.63;;
56183;SDS011;42086;53.170;6.980;2022-11-10T06:34:47;26.90;;;9.00;;
56183;SDS011;42086;53.170;6.980;2022-11-10T06:37:13;29.50;;;8.90;;
56183;SDS011;42086;53.170;6.980;2022-11-10T06:39:39;30.02;;;8.65;;
56183;SDS011;42086;53.170;6.980;2022-11-10T06:42:05;29.83;;;8.88;;
56183;SDS011;42086;53.170;6.980;2022-11-10T06:44:30;36.00;;;9.80;;
56183;SDS011;42086;53.170;6.980;2022-11-10T06:46:56;26.38;;;9.10;;
56183;SDS011;42086;53.170;6.980;2022-11-10T06:49:21;22.45;;;8.52;;
56183;SDS011;42086;53.170;6.980;2022-11-10T06:51:47;25.83;;;7.85;;
56183;SDS011;42086;53.170;6.980;2022-11-10T06:54:13;25.38;;;7.72;;
56183;SDS011;42086;53.170;6.980;2022-11-10T06:56:39;33.72;;;9.02;;
56183;SDS011;42086;53.170;6.980;2022-11-10T06:59:04;32.50;;;9.10;;
56183;SDS011;42086;53.170;6.980;2022-11-10T07:01:30;31.92;;;9.35;;
56183;SDS011;42086;53.170;6.980;2022-11-10T07:03:56;26.98;;;8.35;;
56183;SDS011;42086;53.170;6.980;2022-11-10T07:06:22;31.48;;;9.63;;
56183;SDS011;42086;53.170;6.980;2022-11-10T07:08:48;28.95;;;8.80;;
56183;SDS011;42086;53.170;6.980;2022-11-10T07:11:14;29.10;;;9.02;;
56183;SDS011;42086;53.170;6.980;2022-11-10T07:13:41;24.30;;;8.57;;
56183;SDS011;42086;53.170;6.980;2022-11-10T07:16:07;28.58;;;9.57;;
56183;SDS011;42086;53.170;6.980;2022-11-10T07:18:34;21.17;;;6.13;;
56183;SDS011;42086;53.170;6.980;2022-11-10T07:21:01;27.05;;;8.93;;
56183;SDS011;42086;53.170;6.980;2022-11-10T07:23:30;29.70;;;8.50;;
56183;SDS011;42086;53.170;6.980;2022-11-10T07:26:00;26.30;;;8.45;;
56183;SDS011;42086;53.170;6.980;2022-11-10T07:28:26;21.38;;;7.45;;
56183;SDS011;42086;53.170;6.980;2022-11-10T07:34:14;21.80;;;8.00;;
56183;SDS011;42086;53.170;6.980;2022-11-10T07:36:40;25.55;;;7.55;;
56183;SDS011;42086;53.170;6.980;2022-11-10T07:39:06;30.65;;;9.45;;
56183;SDS011;42086;53.170;6.980;2022-11-10T07:41:31;24.85;;;8.63;;
56183;SDS011;42086;53.170;6.980;2022-11-10T07:43:57;31.17;;;9.02;;
56183;SDS011;42086;53.170;6.980;2022-11-10T07:46:23;28.90;;;7.80;;
56183;SDS011;42086;53.170;6.980;2022-11-10T07:48:48;23.67;;;9.10;;
56183;SDS011;42086;53.170;6.980;2022-11-10T07:51:14;29.75;;;8.85;;
56183;SDS011;42086;53.170;6.980;2022-11-10T07:53:40;28.70;;;8.43;;
56183;SDS011;42086;53.170;6.980;2022-11-10T07:56:06;25.92;;;8.98;;
56183;SDS011;42086;53.170;6.980;2022-11-10T07:58:32;33.80;;;10.23;;
56183;SDS011;42086;53.170;6.980;2022-11-10T08:00:58;26.63;;;9.73;;
56183;SDS011;42086;53.170;6.980;2022-11-10T08:03:24;25.55;;;9.07;;
56183;SDS011;42086;53.170;6.980;2022-11-10T08:05:49;30.15;;;9.15;;
56183;SDS011;42086;53.170;6.980;2022-11-10T08:08:17;31.52;;;8.55;;
56183;SDS011;42086;53.170;6.980;2022-11-10T08:10:43;27.42;;;9.18;;
56183;SDS011;42086;53.170;6.980;2022-11-10T08:13:09;26.80;;;8.93;;
56183;SDS011;42086;53.170;6.980;2022-11-10T08:15:37;32.22;;;10.30;;
56183;SDS011;42086;53.170;6.980;2022-11-10T08:20:37;31.92;;;9.30;;
56183;SDS011;42086;53.170;6.980;2022-11-10T08:23:03;29.58;;;9.60;;
56183;SDS011;42086;53.170;6.980;2022-11-10T08:25:30;27.40;;;9.98;;
56183;SDS011;42086;53.170;6.980;2022-11-10T08:28:05;30.63;;;9.35;;
56183;SDS011;42086;53.170;6.980;2022-11-10T08:30:33;29.05;;;8.88;;
56183;SDS011;42086;53.170;6.980;2022-11-10T08:33:00;29.48;;;9.85;;
56183;SDS011;42086;53.170;6.980;2022-11-10T08:35:29;29.70;;;10.05;;
56183;SDS011;42086;53.170;6.980;2022-11-10T08:38:03;28.00;;;9.77;;
56183;SDS011;42086;53.170;6.980;2022-11-10T08:40:31;29.02;;;8.85;;
56183;SDS011;42086;53.170;6.980;2022-11-10T08:42:58;33.90;;;9.80;;
56183;SDS011;42086;53.170;6.980;2022-11-10T08:45:24;27.08;;;9.18;;
56183;SDS011;42086;53.170;6.980;2022-11-10T08:47:57;30.55;;;9.85;;
56183;SDS011;42086;53.170;6.980;2022-11-10T08:50:24;24.52;;;8.95;;
56183;SDS011;42086;53.170;6.980;2022-11-10T08:52:51;27.63;;;10.57;;
56183;SDS011;42086;53.170;6.980;2022-11-10T08:55:17;28.95;;;10.75;;
56183;SDS011;42086;53.170;6.980;2022-11-10T08:57:44;29.63;;;9.88;;
56183;SDS011;42086;53.170;6.980;2022-11-10T09:00:11;25.08;;;9.25;;
56183;SDS011;42086;53.170;6.980;2022-11-10T09:02:38;28.38;;;10.10;;
56183;SDS011;42086;53.170;6.980;2022-11-10T09:05:03;22.67;;;9.00;;
56183;SDS011;42086;53.170;6.980;2022-11-10T09:07:29;20.67;;;8.73;;
56183;SDS011;42086;53.170;6.980;2022-11-10T09:09:55;29.55;;;9.93;;
56183;SDS011;42086;53.170;6.980;2022-11-10T09:12:21;24.35;;;8.55;;
56183;SDS011;42086;53.170;6.980;2022-11-10T09:14:47;25.10;;;9.77;;
56183;SDS011;42086;53.170;6.980;2022-11-10T09:17:12;23.48;;;9.82;;
56183;SDS011;42086;53.170;6.980;2022-11-10T09:19:38;19.15;;;7.30;;
56183;SDS011;42086;53.170;6.980;2022-11-10T09:22:04;20.05;;;7.82;;
56183;SDS011;42086;53.170;6.980;2022-11-10T09:24:29;23.45;;;8.27;;
56183;SDS011;42086;53.170;6.980;2022-11-10T09:26:55;25.45;;;9.30;;
56183;SDS011;42086;53.170;6.980;2022-11-10T09:29:21;25.38;;;8.00;;
56183;SDS011;42086;53.170;6.980;2022-11-10T09:31:48;25.23;;;9.35;;
56183;SDS011;42086;53.170;6.980;2022-11-10T09:34:14;22.88;;;8.82;;
56183;SDS011;42086;53.170;6.980;2022-11-10T09:36:39;26.50;;;7.93;;
56183;SDS011;42086;53.170;6.980;2022-11-10T09:39:06;27.70;;;9.02;;
56183;SDS011;42086;53.170;6.980;2022-11-10T09:41:31;21.85;;;8.43;;
56183;SDS011;42086;53.170;6.980;2022-11-10T09:46:37;20.17;;;8.30;;
56183;SDS011;42086;53.170;6.980;2022-11-10T09:51:50;22.13;;;6.57;;
56183;SDS011;42086;53.170;6.980;2022-11-10T09:57:02;18.27;;;5.70;;
56183;SDS011;42086;53.170;6.980;2022-11-10T09:59:31;20.95;;;7.55;;
56183;SDS011;42086;53.170;6.980;2022-11-10T10:02:02;24.65;;;8.88;;
56183;SDS011;42086;53.170;6.980;2022-11-10T10:07:25;25.48;;;6.18;;
56183;SDS011;42086;53.170;6.980;2022-11-10T10:17:50;24.00;;;6.82;;
56183;SDS011;42086;53.170;6.980;2022-11-10T10:20:29;17.23;;;7.20;;
56183;SDS011;42086;53.170;6.980;2022-11-10T10:23:18;21.30;;;5.80;;
56183;SDS011;42086;53.170;6.980;2022-11-10T10:25:50;21.98;;;6.03;;
56183;SDS011;42086;53.170;6.980;2022-11-10T10:30:42;17.80;;;5.75;;
56183;SDS011;42086;53.170;6.980;2022-11-10T10:33:13;17.15;;;5.43;;
56183;SDS011;42086;53.170;6.980;2022-11-10T10:35:43;16.23;;;4.95;;
56183;SDS011;42086;53.170;6.980;2022-11-10T10:38:16;14.98;;;4.95;;
56183;SDS011;42086;53.170;6.980;2022-11-10T10:40:51;22.02;;;6.10;;
56183;SDS011;42086;53.170;6.980;2022-11-10T10:43:18;21.10;;;6.00;;
56183;SDS011;42086;53.170;6.980;2022-11-10T10:45:43;18.10;;;5.97;;
56183;SDS011;42086;53.170;6.980;2022-11-10T10:48:27;20.98;;;6.03;;
56183;SDS011;42086;53.170;6.980;2022-11-10T10:50:54;18.15;;;4.78;;
56183;SDS011;42086;53.170;6.980;2022-11-10T10:53:20;21.50;;;6.13;;
56183;SDS011;42086;53.170;6.980;2022-11-10T10:55:51;20.35;;;6.07;;
56183;SDS011;42086;53.170;6.980;2022-11-10T11:01:03;17.35;;;5.00;;
56183;SDS011;42086;53.170;6.980;2022-11-10T11:03:48;24.80;;;5.78;;
56183;SDS011;42086;53.170;6.980;2022-11-10T11:08:53;24.83;;;7.47;;
56183;SDS011;42086;53.170;6.980;2022-11-10T11:11:27;20.13;;;7.28;;
56183;SDS011;42086;53.170;6.980;2022-11-10T11:16:52;18.25;;;6.18;;
56183;SDS011;42086;53.170;6.980;2022-11-10T11:19:21;24.98;;;6.90;;
56183;SDS011;42086;53.170;6.980;2022-11-10T11:30:50;22.42;;;6.40;;
56183;SDS011;42086;53.170;6.980;2022-11-10T11:39:05;22.92;;;5.28;;
56183;SDS011;42086;53.170;6.980;2022-11-10T11:50:12;11.32;;;2.40;;
56183;SDS011;42086;53.170;6.980;2022-11-10T11:53:28;10.48;;;2.88;;
56183;SDS011;42086;53.170;6.980;2022-11-10T12:06:56;14.30;;;2.20;;
56183;SDS011;42086;53.170;6.980;2022-11-10T12:14:25;14.57;;;2.67;;
56183;SDS011;42086;53.170;6.980;2022-11-10T12:17:13;13.85;;;3.00;;
56183;SDS011;42086;53.170;6.980;2022-11-10T12:20:00;9.93;;;2.90;;
56183;SDS011;42086;53.170;6.980;2022-11-10T12:28:24;19.20;;;3.78;;
56183;SDS011;42086;53.170;6.980;2022-11-10T12:31:05;15.30;;;3.30;;
56183;SDS011;42086;53.170;6.980;2022-11-10T12:33:43;17.83;;;3.17;;
56183;SDS011;42086;53.170;6.980;2022-11-10T12:36:16;11.82;;;2.85;;
56183;SDS011;42086;53.170;6.980;2022-11-10T12:38:47;12.70;;;2.88;;
56183;SDS011;42086;53.170;6.980;2022-11-10T12:41:21;13.23;;;2.22;;
56183;SDS011;42086;53.170;6.980;2022-11-10T12:44:02;19.20;;;3.33;;
56183;SDS011;42086;53.170;6.980;2022-11-10T12:46:36;12.27;;;2.47;;
56183;SDS011;42086;53.170;6.980;2022-11-10T12:51:45;6.72;;;2.25;;
56183;SDS011;42086;53.170;6.980;2022-11-10T12:54:21;11.23;;;2.25;;
56183;SDS011;42086;53.170;6.980;2022-11-10T12:56:52;16.23;;;2.83;;
56183;SDS011;42086;53.170;6.980;2022-11-10T12:59:26;11.88;;;2.33;;
56183;SDS011;42086;53.170;6.980;2022-11-10T13:07:46;13.15;;;2.50;;
56183;SDS011;42086;53.170;6.980;2022-11-10T13:18:03;13.93;;;2.55;;
56183;SDS011;42086;53.170;6.980;2022-11-10T13:36:50;12.23;;;2.28;;
56183;SDS011;42086;53.170;6.980;2022-11-10T13:41:45;10.88;;;2.45;;
56183;SDS011;42086;53.170;6.980;2022-11-10T13:44:29;10.20;;;2.22;;
56183;SDS011;42086;53.170;6.980;2022-11-10T13:52:14;12.73;;;2.50;;
56183;SDS011;42086;53.170;6.980;2022-11-10T13:54:57;16.13;;;2.60;;
56183;SDS011;42086;53.170;6.980;2022-11-10T13:57:37;11.10;;;2.30;;
56183;SDS011;42086;53.170;6.980;2022-11-10T14:02:52;11.73;;;2.53;;
56183;SDS011;42086;53.170;6.980;2022-11-10T14:08:13;12.07;;;2.42;;
56183;SDS011;42086;53.170;6.980;2022-11-10T14:10:46;11.93;;;2.80;;
56183;SDS011;42086;53.170;6.980;2022-11-10T14:13:19;13.05;;;2.40;;
56183;SDS011;42086;53.170;6.980;2022-11-10T14:15:48;11.20;;;3.05;;
56183;SDS011;42086;53.170;6.980;2022-11-10T14:20:59;11.68;;;2.20;;
56183;SDS011;42086;53.170;6.980;2022-11-10T14:23:32;13.18;;;3.00;;
56183;SDS011;42086;53.170;6.980;2022-11-10T14:26:22;9.27;;;1.73;;
56183;SDS011;42086;53.170;6.980;2022-11-10T14:28:52;10.13;;;2.58;;
56183;SDS011;42086;53.170;6.980;2022-11-10T14:31:19;12.93;;;2.20;;
56183;SDS011;42086;53.170;6.980;2022-11-10T14:33:56;11.02;;;2.63;;
56183;SDS011;42086;53.170;6.980;2022-11-10T14:36:23;13.80;;;2.60;;
56183;SDS011;42086;53.170;6.980;2022-11-10T14:38:50;13.82;;;2.60;;
56183;SDS011;42086;53.170;6.980;2022-11-10T14:41:18;14.10;;;2.90;;
56183;SDS011;42086;53.170;6.980;2022-11-10T14:43:57;16.60;;;2.80;;
56183;SDS011;42086;53.170;6.980;2022-11-10T14:46:28;10.13;;;2.97;;
56183;SDS011;42086;53.170;6.980;2022-11-10T14:48:54;10.57;;;2.67;;
56183;SDS011;42086;53.170;6.980;2022-11-10T14:51:22;8.63;;;2.53;;
56183;SDS011;42086;53.170;6.980;2022-11-10T14:53:49;15.02;;;3.78;;
56183;SDS011;42086;53.170;6.980;2022-11-10T14:58:53;13.60;;;3.30;;
56183;SDS011;42086;53.170;6.980;2022-11-10T15:03:52;12.50;;;3.08;;
56183;SDS011;42086;53.170;6.980;2022-11-10T15:06:19;11.18;;;3.05;;
56183;SDS011;42086;53.170;6.980;2022-11-10T15:08:45;13.32;;;3.35;;
56183;SDS011;42086;53.170;6.980;2022-11-10T15:14:03;9.48;;;3.17;;
56183;SDS011;42086;53.170;6.980;2022-11-10T15:24:59;23.13;;;3.50;;
56183;SDS011;42086;53.170;6.980;2022-11-10T15:27:32;11.93;;;3.10;;
56183;SDS011;42086;53.170;6.980;2022-11-10T15:29:59;11.57;;;2.67;;
56183;SDS011;42086;53.170;6.980;2022-11-10T15:32:43;8.77;;;2.85;;
56183;SDS011;42086;53.170;6.980;2022-11-10T15:38:01;10.98;;;3.20;;
56183;SDS011;42086;53.170;6.980;2022-11-10T15:43:14;12.00;;;3.00;;
56183;SDS011;42086;53.170;6.980;2022-11-10T15:46:01;12.70;;;3.30;;
56183;SDS011;42086;53.170;6.980;2022-11-10T15:48:40;9.55;;;3.60;;
56183;SDS011;42086;53.170;6.980;2022-11-10T15:51:10;10.10;;;2.60;;
56183;SDS011;42086;53.170;6.980;2022-11-10T15:53:38;16.95;;;3.65;;
56183;SDS011;42086;53.170;6.980;2022-11-10T15:56:10;13.05;;;3.70;;
56183;SDS011;42086;53.170;6.980;2022-11-10T15:58:38;12.38;;;3.85;;
56183;SDS011;42086;53.170;6.980;2022-11-10T16:01:07;12.15;;;2.90;;
56183;SDS011;42086;53.170;6.980;2022-11-10T16:03:35;14.23;;;3.15;;
56183;SDS011;42086;53.170;6.980;2022-11-10T16:06:00;8.85;;;2.65;;
56183;SDS011;42086;53.170;6.980;2022-11-10T16:08:26;8.95;;;3.10;;
56183;SDS011;42086;53.170;6.980;2022-11-10T16:10:55;6.47;;;2.67;;
56183;SDS011;42086;53.170;6.980;2022-11-10T16:13:22;14.98;;;3.20;;
56183;SDS011;42086;53.170;6.980;2022-11-10T16:15:50;12.60;;;3.08;;
56183;SDS011;42086;53.170;6.980;2022-11-10T16:18:17;16.02;;;4.10;;
56183;SDS011;42086;53.170;6.980;2022-11-10T16:20:46;11.85;;;3.22;;
56183;SDS011;42086;53.170;6.980;2022-11-10T16:23:12;10.40;;;2.70;;
56183;SDS011;42086;53.170;6.980;2022-11-10T16:25:38;10.95;;;3.08;;
56183;SDS011;42086;53.170;6.980;2022-11-10T16:28:04;8.52;;;2.63;;
56183;SDS011;42086;53.170;6.980;2022-11-10T16:30:31;10.93;;;2.85;;
56183;SDS011;42086;53.170;6.980;2022-11-10T16:32:58;11.57;;;3.13;;
56183;SDS011;42086;53.170;6.980;2022-11-10T16:35:24;12.77;;;3.10;;
56183;SDS011;42086;53.170;6.980;2022-11-10T16:37:50;11.63;;;2.97;;
56183;SDS011;42086;53.170;6.980;2022-11-10T16:40:18;12.68;;;3.20;;
56183;SDS011;42086;53.170;6.980;2022-11-10T16:42:45;12.55;;;3.50;;
56183;SDS011;42086;53.170;6.980;2022-11-10T16:47:41;14.63;;;3.15;;
56183;SDS011;42086;53.170;6.980;2022-11-10T16:52:54;10.73;;;3.35;;
56183;SDS011;42086;53.170;6.980;2022-11-10T16:55:20;14.00;;;3.38;;
56183;SDS011;42086;53.170;6.980;2022-11-10T16:57:46;17.35;;;4.35;;
56183;SDS011;42086;53.170;6.980;2022-11-10T17:00:13;10.07;;;2.83;;
56183;SDS011;42086;53.170;6.980;2022-11-10T17:02:39;12.10;;;3.20;;
56183;SDS011;42086;53.170;6.980;2022-11-10T17:05:12;12.43;;;3.58;;
56183;SDS011;42086;53.170;6.980;2022-11-10T17:07:39;10.00;;;3.60;;
56183;SDS011;42086;53.170;6.980;2022-11-10T17:10:05;16.80;;;3.85;;
56183;SDS011;42086;53.170;6.980;2022-11-10T17:12:41;10.18;;;3.30;;
56183;SDS011;42086;53.170;6.980;2022-11-10T17:15:08;15.77;;;3.58;;
56183;SDS011;42086;53.170;6.980;2022-11-10T17:17:35;8.15;;;3.20;;
56183;SDS011;42086;53.170;6.980;2022-11-10T17:20:02;16.08;;;4.05;;
56183;SDS011;42086;53.170;6.980;2022-11-10T17:22:29;11.00;;;3.38;;